sensor_id;sensor_type;location;lat;lon;timestamp;temperature;humidity
32614;DHT22;19031;51.400;6.770;2024-02-15T00:00:20;12.30;99.90
32614;DHT22;19031;51.400;6.770;2024-02-15T00:02:47;12.40;99.90
32614;DHT22;19031;51.400;6.770;2024-02-15T00:05:13;12.40;99.90
32614;DHT22;19031;51.400;6.770;2024-02-15T00:07:40;12.50;99.90
32614;DHT22;19031;51.400;6.770;2024-02-15T00:10:05;12.50;99.90
32614;DHT22;19031;51.400;6.770;2024-02-15T00:12:32;12.50;99.90
32614;DHT22;19031;51.400;6.770;2024-02-15T00:14:57;12.50;99.90
32614;DHT22;19031;51.400;6.770;2024-02-15T00:17:24;12.50;99.90
32614;DHT22;19031;51.400;6.770;2024-02-15T00:19:50;12.40;99.90
32614;DHT22;19031;51.400;6.770;2024-02-15T00:22:15;12.50;99.90
32614;DHT22;19031;51.400;6.770;2024-02-15T00:24:41;12.40;99.90
32614;DHT22;19031;51.400;6.770;2024-02-15T00:27:08;12.50;99.90
32614;DHT22;19031;51.400;6.770;2024-02-15T00:29:33;12.40;99.90
32614;DHT22;19031;51.400;6.770;2024-02-15T00:32:02;12.40;99.90
32614;DHT22;19031;51.400;6.770;2024-02-15T00:34:31;12.50;99.90
32614;DHT22;19031;51.400;6.770;2024-02-15T00:36:57;12.40;99.90
32614;DHT22;19031;51.400;6.770;2024-02-15T00:39:23;12.50;99.90
32614;DHT22;19031;51.400;6.770;2024-02-15T00:41:48;12.50;99.90
32614;DHT22;19031;51.400;6.770;2024-02-15T00:44:14;12.60;99.90
32614;DHT22;19031;51.400;6.770;2024-02-15T00:46:39;12.60;99.90
32614;DHT22;19031;51.400;6.770;2024-02-15T00:49:06;12.60;99.90
32614;DHT22;19031;51.400;6.770;2024-02-15T00:51:35;12.50;99.90
32614;DHT22;19031;51.400;6.770;2024-02-15T00:54:02;12.60;99.90
32614;DHT22;19031;51.400;6.770;2024-02-15T00:56:28;12.60;99.90
32614;DHT22;19031;51.400;6.770;2024-02-15T00:58:55;12.60;99.90
32614;DHT22;19031;51.400;6.770;2024-02-15T01:01:21;12.60;99.90
32614;DHT22;19031;51.400;6.770;2024-02-15T01:03:47;12.50;99.90
32614;DHT22;19031;51.400;6.770;2024-02-15T01:06:12;12.60;99.90
32614;DHT22;19031;51.400;6.770;2024-02-15T01:08:38;12.60;99.90
32614;DHT22;19031;51.400;6.770;2024-02-15T01:11:04;12.50;99.90
32614;DHT22;19031;51.400;6.770;2024-02-15T01:13:30;12.50;99.90
32614;DHT22;19031;51.400;6.770;2024-02-15T01:15:55;12.50;99.90
32614;DHT22;19031;51.400;6.770;2024-02-15T01:18:21;12.60;99.90
32614;DHT22;19031;51.400;6.770;2024-02-15T01:20:46;12.60;99.90
32614;DHT22;19031;51.400;6.770;2024-02-15T01:23:12;12.60;99.90
32614;DHT22;19031;51.400;6.770;2024-02-15T01:25:37;12.60;99.90
32614;DHT22;19031;51.400;6.770;2024-02-15T01:28:05;12.60;99.90
32614;DHT22;19031;51.400;6.770;2024-02-15T01:30:31;12.50;99.90
32614;DHT22;19031;51.400;6.770;2024-02-15T01:32:57;12.50;99.90
32614;DHT22;19031;51.400;6.770;2024-02-15T01:35:23;12.50;99.90
32614;DHT22;19031;51.400;6.770;2024-02-15T01:37:48;12.50;99.90
32614;DHT22;19031;51.400;6.770;2024-02-15T01:40:14;12.50;99.90
32614;DHT22;19031;51.400;6.770;2024-02-15T01:42:41;12.40;99.90
32614;DHT22;19031;51.400;6.770;2024-02-15T01:45:07;12.40;99.90
32614;DHT22;19031;51.400;6.770;2024-02-15T01:47:33;12.40;99.90
32614;DHT22;19031;51.400;6.770;2024-02-15T01:49:58;12.50;99.90
32614;DHT22;19031;51.400;6.770;2024-02-15T01:52:24;12.40;99.90
32614;DHT22;19031;51.400;6.770;2024-02-15T01:54:53;12.40;99.90
32614;DHT22;19031;51.400;6.770;2024-02-15T01:57:20;12.40;99.90
32614;DHT22;19031;51.400;6.770;2024-02-15T01:59:46;12.40;99.90
32614;DHT22;19031;51.400;6.770;2024-02-15T02:02:14;12.40;99.90
32614;DHT22;19031;51.400;6.770;2024-02-15T02:04:41;12.40;99.90
32614;DHT22;19031;51.400;6.770;2024-02-15T02:07:07;12.40;99.90
32614;DHT22;19031;51.400;6.770;2024-02-15T02:09:33;12.30;99.90
32614;DHT22;19031;51.400;6.770;2024-02-15T02:11:59;12.30;99.90
32614;DHT22;19031;51.400;6.770;2024-02-15T02:14:25;12.30;99.90
32614;DHT22;19031;51.400;6.770;2024-02-15T02:16:51;12.40;99.90
32614;DHT22;19031;51.400;6.770;2024-02-15T02:19:17;12.30;99.90
32614;DHT22;19031;51.400;6.770;2024-02-15T02:21:43;12.40;99.90
32614;DHT22;19031;51.400;6.770;2024-02-15T02:24:22;12.30;99.90
32614;DHT22;19031;51.400;6.770;2024-02-15T02:26:49;12.30;99.90
32614;DHT22;19031;51.400;6.770;2024-02-15T02:29:16;12.20;99.90
32614;DHT22;19031;51.400;6.770;2024-02-15T02:31:41;12.20;99.90
32614;DHT22;19031;51.400;6.770;2024-02-15T02:34:08;12.30;99.90
32614;DHT22;19031;51.400;6.770;2024-02-15T02:36:34;12.30;99.90
32614;DHT22;19031;51.400;6.770;2024-02-15T02:38:59;12.30;99.90
32614;DHT22;19031;51.400;6.770;2024-02-15T02:41:27;12.30;99.90
32614;DHT22;19031;51.400;6.770;2024-02-15T02:43:55;12.30;99.90
32614;DHT22;19031;51.400;6.770;2024-02-15T02:46:20;12.30;99.90
32614;DHT22;19031;51.400;6.770;2024-02-15T02:48:46;12.40;99.90
32614;DHT22;19031;51.400;6.770;2024-02-15T02:51:12;12.20;99.90
32614;DHT22;19031;51.400;6.770;2024-02-15T02:53:37;12.30;99.90
32614;DHT22;19031;51.400;6.770;2024-02-15T02:56:03;12.20;99.90
32614;DHT22;19031;51.400;6.770;2024-02-15T02:58:29;12.30;99.90
32614;DHT22;19031;51.400;6.770;2024-02-15T03:00:55;12.30;99.90
32614;DHT22;19031;51.400;6.770;2024-02-15T03:03:21;12.20;99.90
32614;DHT22;19031;51.400;6.770;2024-02-15T03:05:49;12.30;99.90
32614;DHT22;19031;51.400;6.770;2024-02-15T03:08:15;12.30;99.90
32614;DHT22;19031;51.400;6.770;2024-02-15T03:10:43;12.20;99.90
32614;DHT22;19031;51.400;6.770;2024-02-15T03:13:08;12.30;99.90
32614;DHT22;19031;51.400;6.770;2024-02-15T03:15:35;12.30;99.90
32614;DHT22;19031;51.400;6.770;2024-02-15T03:18:00;12.20;99.90
32614;DHT22;19031;51.400;6.770;2024-02-15T03:20:32;12.30;99.90
32614;DHT22;19031;51.400;6.770;2024-02-15T03:23:00;12.20;99.90
32614;DHT22;19031;51.400;6.770;2024-02-15T03:25:28;12.30;99.90
32614;DHT22;19031;51.400;6.770;2024-02-15T03:27:57;12.30;99.90
32614;DHT22;19031;51.400;6.770;2024-02-15T03:30:25;12.20;99.90
32614;DHT22;19031;51.400;6.770;2024-02-15T03:32:51;12.30;99.90
32614;DHT22;19031;51.400;6.770;2024-02-15T03:35:20;12.30;99.90
32614;DHT22;19031;51.400;6.770;2024-02-15T03:37:47;12.20;99.90
32614;DHT22;19031;51.400;6.770;2024-02-15T03:40:16;12.30;99.90
32614;DHT22;19031;51.400;6.770;2024-02-15T03:42:41;12.30;99.90
32614;DHT22;19031;51.400;6.770;2024-02-15T03:45:07;12.30;99.90
32614;DHT22;19031;51.400;6.770;2024-02-15T03:47:33;12.30;99.90
32614;DHT22;19031;51.400;6.770;2024-02-15T03:50:01;12.30;99.90
32614;DHT22;19031;51.400;6.770;2024-02-15T03:52:27;12.30;99.90
32614;DHT22;19031;51.400;6.770;2024-02-15T03:54:52;12.30;99.90
32614;DHT22;19031;51.400;6.770;2024-02-15T03:57:19;12.40;99.90
32614;DHT22;19031;51.400;6.770;2024-02-15T03:59:46;12.30;99.90
32614;DHT22;19031;51.400;6.770;2024-02-15T04:02:16;12.40;99.90
32614;DHT22;19031;51.400;6.770;2024-02-15T04:04:41;12.30;99.90
32614;DHT22;19031;51.400;6.770;2024-02-15T04:07:08;12.40;99.90
32614;DHT22;19031;51.400;6.770;2024-02-15T04:09:34;12.30;99.90
32614;DHT22;19031;51.400;6.770;2024-02-15T04:12:01;12.40;99.90
32614;DHT22;19031;51.400;6.770;2024-02-15T04:14:27;12.40;99.90
32614;DHT22;19031;51.400;6.770;2024-02-15T04:16:53;12.40;99.90
32614;DHT22;19031;51.400;6.770;2024-02-15T04:19:19;12.40;99.90
32614;DHT22;19031;51.400;6.770;2024-02-15T04:21:45;12.40;99.90
32614;DHT22;19031;51.400;6.770;2024-02-15T04:24:11;12.40;99.90
32614;DHT22;19031;51.400;6.770;2024-02-15T04:26:38;12.40;99.90
32614;DHT22;19031;51.400;6.770;2024-02-15T04:29:04;12.30;99.90
32614;DHT22;19031;51.400;6.770;2024-02-15T04:31:29;12.40;99.90
32614;DHT22;19031;51.400;6.770;2024-02-15T04:33:55;12.40;99.90
32614;DHT22;19031;51.400;6.770;2024-02-15T04:36:22;12.40;99.90
32614;DHT22;19031;51.400;6.770;2024-02-15T04:38:51;12.30;99.90
32614;DHT22;19031;51.400;6.770;2024-02-15T04:41:20;12.30;99.90
32614;DHT22;19031;51.400;6.770;2024-02-15T04:43:49;12.30;99.90
32614;DHT22;19031;51.400;6.770;2024-02-15T04:46:14;12.30;99.90
32614;DHT22;19031;51.400;6.770;2024-02-15T04:48:41;12.20;99.90
32614;DHT22;19031;51.400;6.770;2024-02-15T04:51:10;12.30;99.90
32614;DHT22;19031;51.400;6.770;2024-02-15T04:53:38;12.30;99.90
32614;DHT22;19031;51.400;6.770;2024-02-15T04:56:05;12.20;99.90
32614;DHT22;19031;51.400;6.770;2024-02-15T04:58:37;12.20;99.90
32614;DHT22;19031;51.400;6.770;2024-02-15T05:01:03;12.20;99.90
32614;DHT22;19031;51.400;6.770;2024-02-15T05:03:31;12.10;99.90
32614;DHT22;19031;51.400;6.770;2024-02-15T05:06:00;12.10;99.90
32614;DHT22;19031;51.400;6.770;2024-02-15T05:08:26;12.20;99.90
32614;DHT22;19031;51.400;6.770;2024-02-15T05:10:51;12.20;99.90
32614;DHT22;19031;51.400;6.770;2024-02-15T05:13:24;12.10;99.90
32614;DHT22;19031;51.400;6.770;2024-02-15T05:15:49;12.10;99.90
32614;DHT22;19031;51.400;6.770;2024-02-15T05:18:15;12.10;99.90
32614;DHT22;19031;51.400;6.770;2024-02-15T05:20:42;12.10;99.90
32614;DHT22;19031;51.400;6.770;2024-02-15T05:23:08;12.10;99.90
32614;DHT22;19031;51.400;6.770;2024-02-15T05:25:34;12.10;99.90
32614;DHT22;19031;51.400;6.770;2024-02-15T05:28:00;12.10;99.90
32614;DHT22;19031;51.400;6.770;2024-02-15T05:30:26;12.10;99.90
32614;DHT22;19031;51.400;6.770;2024-02-15T05:32:52;12.10;99.90
32614;DHT22;19031;51.400;6.770;2024-02-15T05:35:19;12.10;99.90
32614;DHT22;19031;51.400;6.770;2024-02-15T05:37:44;12.10;99.90
32614;DHT22;19031;51.400;6.770;2024-02-15T05:40:11;12.10;99.90
32614;DHT22;19031;51.400;6.770;2024-02-15T05:42:43;12.10;99.90
32614;DHT22;19031;51.400;6.770;2024-02-15T05:47:54;12.20;99.90
32614;DHT22;19031;51.400;6.770;2024-02-15T05:50:20;12.00;99.90
32614;DHT22;19031;51.400;6.770;2024-02-15T05:52:49;12.10;99.90
32614;DHT22;19031;51.400;6.770;2024-02-15T05:55:16;12.00;99.90
32614;DHT22;19031;51.400;6.770;2024-02-15T05:57:45;12.10;99.90
32614;DHT22;19031;51.400;6.770;2024-02-15T06:00:11;12.10;99.90
32614;DHT22;19031;51.400;6.770;2024-02-15T06:02:37;12.00;99.90
32614;DHT22;19031;51.400;6.770;2024-02-15T06:05:04;12.10;99.90
32614;DHT22;19031;51.400;6.770;2024-02-15T06:07:30;12.10;99.90
32614;DHT22;19031;51.400;6.770;2024-02-15T06:09:57;12.10;99.90
32614;DHT22;19031;51.400;6.770;2024-02-15T06:12:28;12.10;99.90
32614;DHT22;19031;51.400;6.770;2024-02-15T06:14:54;12.10;99.90
32614;DHT22;19031;51.400;6.770;2024-02-15T06:17:19;12.20;99.90
32614;DHT22;19031;51.400;6.770;2024-02-15T06:19:45;12.20;99.90
32614;DHT22;19031;51.400;6.770;2024-02-15T06:22:10;12.10;99.90
32614;DHT22;19031;51.400;6.770;2024-02-15T06:24:37;12.20;99.90
32614;DHT22;19031;51.400;6.770;2024-02-15T06:27:03;12.20;99.90
32614;DHT22;19031;51.400;6.770;2024-02-15T06:29:32;12.10;99.90
32614;DHT22;19031;51.400;6.770;2024-02-15T06:32:16;12.10;99.90
32614;DHT22;19031;51.400;6.770;2024-02-15T06:35:00;12.10;99.90
32614;DHT22;19031;51.400;6.770;2024-02-15T06:37:44;12.20;99.90
32614;DHT22;19031;51.400;6.770;2024-02-15T06:40:28;12.20;99.90
32614;DHT22;19031;51.400;6.770;2024-02-15T06:42:54;12.30;99.90
32614;DHT22;19031;51.400;6.770;2024-02-15T06:45:19;12.20;99.90
32614;DHT22;19031;51.400;6.770;2024-02-15T06:47:45;12.20;99.90
32614;DHT22;19031;51.400;6.770;2024-02-15T06:50:12;12.10;99.90
32614;DHT22;19031;51.400;6.770;2024-02-15T06:52:39;12.20;99.90
32614;DHT22;19031;51.400;6.770;2024-02-15T06:55:08;12.30;99.90
32614;DHT22;19031;51.400;6.770;2024-02-15T06:57:34;12.20;99.90
32614;DHT22;19031;51.400;6.770;2024-02-15T07:00:04;12.20;99.90
32614;DHT22;19031;51.400;6.770;2024-02-15T07:02:35;12.30;99.90
32614;DHT22;19031;51.400;6.770;2024-02-15T07:05:01;12.30;99.90
32614;DHT22;19031;51.400;6.770;2024-02-15T07:07:28;12.30;99.90
32614;DHT22;19031;51.400;6.770;2024-02-15T07:09:54;12.30;99.90
32614;DHT22;19031;51.400;6.770;2024-02-15T07:12:20;12.20;99.90
32614;DHT22;19031;51.400;6.770;2024-02-15T07:14:47;12.30;99.90
32614;DHT22;19031;51.400;6.770;2024-02-15T07:17:13;12.30;99.90
32614;DHT22;19031;51.400;6.770;2024-02-15T07:19:43;12.30;99.90
32614;DHT22;19031;51.400;6.770;2024-02-15T07:22:09;12.20;99.90
32614;DHT22;19031;51.400;6.770;2024-02-15T07:24:35;12.30;99.90
32614;DHT22;19031;51.400;6.770;2024-02-15T07:27:06;12.30;99.90
32614;DHT22;19031;51.400;6.770;2024-02-15T07:29:32;12.40;99.90
32614;DHT22;19031;51.400;6.770;2024-02-15T07:32:03;12.40;99.90
32614;DHT22;19031;51.400;6.770;2024-02-15T07:34:30;12.30;99.90
32614;DHT22;19031;51.400;6.770;2024-02-15T07:36:56;12.30;99.90
32614;DHT22;19031;51.400;6.770;2024-02-15T07:39:23;12.20;99.90
32614;DHT22;19031;51.400;6.770;2024-02-15T07:41:51;12.30;99.90
32614;DHT22;19031;51.400;6.770;2024-02-15T07:44:16;12.20;99.90
32614;DHT22;19031;51.400;6.770;2024-02-15T07:46:43;12.30;99.90
32614;DHT22;19031;51.400;6.770;2024-02-15T07:49:08;12.20;99.90
32614;DHT22;19031;51.400;6.770;2024-02-15T07:51:34;12.20;99.90
32614;DHT22;19031;51.400;6.770;2024-02-15T07:54:00;12.20;99.90
32614;DHT22;19031;51.400;6.770;2024-02-15T07:56:26;12.20;99.90
32614;DHT22;19031;51.400;6.770;2024-02-15T07:58:52;12.20;99.90
32614;DHT22;19031;51.400;6.770;2024-02-15T08:01:18;12.20;99.90
32614;DHT22;19031;51.400;6.770;2024-02-15T08:03:47;12.20;99.90
32614;DHT22;19031;51.400;6.770;2024-02-15T08:06:14;12.30;99.90
32614;DHT22;19031;51.400;6.770;2024-02-15T08:08:42;12.20;99.90
32614;DHT22;19031;51.400;6.770;2024-02-15T08:11:08;12.30;99.90
32614;DHT22;19031;51.400;6.770;2024-02-15T08:16:18;12.30;99.90
32614;DHT22;19031;51.400;6.770;2024-02-15T08:18:44;12.30;99.90
32614;DHT22;19031;51.400;6.770;2024-02-15T08:21:11;12.30;99.90
32614;DHT22;19031;51.400;6.770;2024-02-15T08:23:36;12.30;99.90
32614;DHT22;19031;51.400;6.770;2024-02-15T08:26:03;12.40;99.90
32614;DHT22;19031;51.400;6.770;2024-02-15T08:28:28;12.30;99.90
32614;DHT22;19031;51.400;6.770;2024-02-15T08:30:55;12.30;99.90
32614;DHT22;19031;51.400;6.770;2024-02-15T08:33:24;12.30;99.90
32614;DHT22;19031;51.400;6.770;2024-02-15T08:35:50;12.40;99.90
32614;DHT22;19031;51.400;6.770;2024-02-15T08:38:16;12.40;99.90
32614;DHT22;19031;51.400;6.770;2024-02-15T08:40:42;12.40;99.90
32614;DHT22;19031;51.400;6.770;2024-02-15T08:43:10;12.40;99.90
32614;DHT22;19031;51.400;6.770;2024-02-15T08:45:35;12.40;99.90
32614;DHT22;19031;51.400;6.770;2024-02-15T08:48:01;12.40;99.90
32614;DHT22;19031;51.400;6.770;2024-02-15T08:50:30;12.40;99.90
32614;DHT22;19031;51.400;6.770;2024-02-15T08:52:55;12.50;99.90
32614;DHT22;19031;51.400;6.770;2024-02-15T08:55:22;12.50;99.90
32614;DHT22;19031;51.400;6.770;2024-02-15T08:57:53;12.50;99.90
32614;DHT22;19031;51.400;6.770;2024-02-15T09:00:18;12.60;99.90
32614;DHT22;19031;51.400;6.770;2024-02-15T09:02:46;12.60;99.90
32614;DHT22;19031;51.400;6.770;2024-02-15T09:05:12;12.70;99.90
32614;DHT22;19031;51.400;6.770;2024-02-15T09:07:45;12.70;99.90
32614;DHT22;19031;51.400;6.770;2024-02-15T09:10:16;12.70;99.90
32614;DHT22;19031;51.400;6.770;2024-02-15T09:12:45;12.70;99.90
32614;DHT22;19031;51.400;6.770;2024-02-15T09:15:14;12.70;99.90
32614;DHT22;19031;51.400;6.770;2024-02-15T09:17:40;12.70;99.90
32614;DHT22;19031;51.400;6.770;2024-02-15T09:20:07;12.70;99.90
32614;DHT22;19031;51.400;6.770;2024-02-15T09:22:34;12.70;99.90
32614;DHT22;19031;51.400;6.770;2024-02-15T09:25:02;12.80;99.90
32614;DHT22;19031;51.400;6.770;2024-02-15T09:27:27;12.80;99.90
32614;DHT22;19031;51.400;6.770;2024-02-15T09:29:53;12.70;99.90
32614;DHT22;19031;51.400;6.770;2024-02-15T09:32:18;12.70;99.90
32614;DHT22;19031;51.400;6.770;2024-02-15T09:34:44;12.80;99.90
32614;DHT22;19031;51.400;6.770;2024-02-15T09:37:09;12.70;99.90
32614;DHT22;19031;51.400;6.770;2024-02-15T09:39:37;12.70;99.90
32614;DHT22;19031;51.400;6.770;2024-02-15T09:42:03;12.70;99.90
32614;DHT22;19031;51.400;6.770;2024-02-15T09:44:29;12.80;99.90
32614;DHT22;19031;51.400;6.770;2024-02-15T09:47:05;12.80;99.90
32614;DHT22;19031;51.400;6.770;2024-02-15T09:49:37;12.80;99.90
32614;DHT22;19031;51.400;6.770;2024-02-15T09:52:06;12.80;99.90
32614;DHT22;19031;51.400;6.770;2024-02-15T09:54:41;12.80;99.90
32614;DHT22;19031;51.400;6.770;2024-02-15T09:57:11;13.00;99.90
32614;DHT22;19031;51.400;6.770;2024-02-15T09:59:40;13.00;99.90
32614;DHT22;19031;51.400;6.770;2024-02-15T10:02:07;13.10;99.90
32614;DHT22;19031;51.400;6.770;2024-02-15T10:04:37;13.20;99.90
32614;DHT22;19031;51.400;6.770;2024-02-15T10:07:03;13.20;99.90
32614;DHT22;19031;51.400;6.770;2024-02-15T10:09:29;13.30;99.90
32614;DHT22;19031;51.400;6.770;2024-02-15T10:12:00;13.40;99.90
32614;DHT22;19031;51.400;6.770;2024-02-15T10:14:28;13.40;99.90
32614;DHT22;19031;51.400;6.770;2024-02-15T10:16:54;13.50;99.90
32614;DHT22;19031;51.400;6.770;2024-02-15T10:19:20;13.50;99.90
32614;DHT22;19031;51.400;6.770;2024-02-15T10:21:52;13.60;99.90
32614;DHT22;19031;51.400;6.770;2024-02-15T10:24:22;13.70;99.90
32614;DHT22;19031;51.400;6.770;2024-02-15T10:26:49;13.70;99.90
32614;DHT22;19031;51.400;6.770;2024-02-15T10:29:16;13.80;99.90
32614;DHT22;19031;51.400;6.770;2024-02-15T10:31:59;13.80;99.90
32614;DHT22;19031;51.400;6.770;2024-02-15T10:34:25;13.80;99.90
32614;DHT22;19031;51.400;6.770;2024-02-15T10:36:55;13.80;99.90
32614;DHT22;19031;51.400;6.770;2024-02-15T10:39:35;13.90;99.90
32614;DHT22;19031;51.400;6.770;2024-02-15T10:42:00;14.00;99.90
32614;DHT22;19031;51.400;6.770;2024-02-15T10:44:26;14.00;99.90
32614;DHT22;19031;51.400;6.770;2024-02-15T10:46:53;14.00;99.90
32614;DHT22;19031;51.400;6.770;2024-02-15T10:49:23;14.20;99.90
32614;DHT22;19031;51.400;6.770;2024-02-15T10:51:57;14.10;99.90
32614;DHT22;19031;51.400;6.770;2024-02-15T10:55:09;14.10;99.90
32614;DHT22;19031;51.400;6.770;2024-02-15T10:57:10;14.20;99.90
32614;DHT22;19031;51.400;6.770;2024-02-15T11:00:04;14.20;99.90
32614;DHT22;19031;51.400;6.770;2024-02-15T11:03:00;14.30;99.90
32614;DHT22;19031;51.400;6.770;2024-02-15T11:05:35;14.40;99.90
32614;DHT22;19031;51.400;6.770;2024-02-15T11:08:05;14.50;99.90
32614;DHT22;19031;51.400;6.770;2024-02-15T11:10:32;14.60;99.90
32614;DHT22;19031;51.400;6.770;2024-02-15T11:12:59;14.80;99.90
32614;DHT22;19031;51.400;6.770;2024-02-15T11:15:46;15.00;99.90
32614;DHT22;19031;51.400;6.770;2024-02-15T11:18:44;15.30;99.90
32614;DHT22;19031;51.400;6.770;2024-02-15T11:21:10;15.60;99.90
32614;DHT22;19031;51.400;6.770;2024-02-15T11:23:36;15.80;99.90
32614;DHT22;19031;51.400;6.770;2024-02-15T11:26:01;15.80;99.90
32614;DHT22;19031;51.400;6.770;2024-02-15T11:28:34;15.90;99.90
32614;DHT22;19031;51.400;6.770;2024-02-15T11:31:02;15.90;99.90
32614;DHT22;19031;51.400;6.770;2024-02-15T11:33:32;15.90;99.90
32614;DHT22;19031;51.400;6.770;2024-02-15T11:36:10;15.90;99.90
32614;DHT22;19031;51.400;6.770;2024-02-15T11:38:37;16.00;99.90
32614;DHT22;19031;51.400;6.770;2024-02-15T11:41:06;16.10;99.90
32614;DHT22;19031;51.400;6.770;2024-02-15T11:46:16;16.00;99.90
32614;DHT22;19031;51.400;6.770;2024-02-15T11:48:45;16.10;99.90
32614;DHT22;19031;51.400;6.770;2024-02-15T11:51:25;16.10;99.90
32614;DHT22;19031;51.400;6.770;2024-02-15T11:54:09;16.20;99.90
32614;DHT22;19031;51.400;6.770;2024-02-15T11:59:09;16.50;99.90
32614;DHT22;19031;51.400;6.770;2024-02-15T12:01:44;16.60;99.90
32614;DHT22;19031;51.400;6.770;2024-02-15T12:04:29;16.70;99.90
32614;DHT22;19031;51.400;6.770;2024-02-15T12:07:15;16.70;99.90
32614;DHT22;19031;51.400;6.770;2024-02-15T12:09:59;16.80;99.90
32614;DHT22;19031;51.400;6.770;2024-02-15T12:12:54;16.90;99.90
32614;DHT22;19031;51.400;6.770;2024-02-15T12:15:38;16.80;99.90
32614;DHT22;19031;51.400;6.770;2024-02-15T12:18:23;16.80;99.90
32614;DHT22;19031;51.400;6.770;2024-02-15T12:21:07;16.90;99.90
32614;DHT22;19031;51.400;6.770;2024-02-15T12:23:37;16.80;99.90
32614;DHT22;19031;51.400;6.770;2024-02-15T12:26:03;16.80;99.90
32614;DHT22;19031;51.400;6.770;2024-02-15T12:28:29;16.90;99.90
32614;DHT22;19031;51.400;6.770;2024-02-15T12:30:55;16.90;99.90
32614;DHT22;19031;51.400;6.770;2024-02-15T12:33:24;17.00;99.90
32614;DHT22;19031;51.400;6.770;2024-02-15T12:35:50;17.00;99.90
32614;DHT22;19031;51.400;6.770;2024-02-15T12:38:16;17.20;99.90
32614;DHT22;19031;51.400;6.770;2024-02-15T12:40:42;17.20;99.90
32614;DHT22;19031;51.400;6.770;2024-02-15T12:43:09;17.20;99.90
32614;DHT22;19031;51.400;6.770;2024-02-15T12:45:36;17.40;99.90
32614;DHT22;19031;51.400;6.770;2024-02-15T12:48:04;17.40;99.90
32614;DHT22;19031;51.400;6.770;2024-02-15T12:50:31;17.50;99.90
32614;DHT22;19031;51.400;6.770;2024-02-15T12:52:57;17.40;99.90
32614;DHT22;19031;51.400;6.770;2024-02-15T12:55:32;17.40;99.90
32614;DHT22;19031;51.400;6.770;2024-02-15T12:58:04;17.40;99.90
32614;DHT22;19031;51.400;6.770;2024-02-15T13:00:31;17.40;99.90
32614;DHT22;19031;51.400;6.770;2024-02-15T13:02:59;17.30;99.90
32614;DHT22;19031;51.400;6.770;2024-02-15T13:05:26;17.40;99.90
32614;DHT22;19031;51.400;6.770;2024-02-15T13:07:53;17.30;99.90
32614;DHT22;19031;51.400;6.770;2024-02-15T13:10:20;17.30;99.90
32614;DHT22;19031;51.400;6.770;2024-02-15T13:12:46;17.40;99.90
32614;DHT22;19031;51.400;6.770;2024-02-15T13:15:14;17.20;99.90
32614;DHT22;19031;51.400;6.770;2024-02-15T13:17:48;17.30;99.90
32614;DHT22;19031;51.400;6.770;2024-02-15T13:20:17;17.30;99.90
32614;DHT22;19031;51.400;6.770;2024-02-15T13:22:46;17.30;99.90
32614;DHT22;19031;51.400;6.770;2024-02-15T13:25:13;17.40;99.90
32614;DHT22;19031;51.400;6.770;2024-02-15T13:27:42;17.40;99.90
32614;DHT22;19031;51.400;6.770;2024-02-15T13:30:09;17.50;99.90
32614;DHT22;19031;51.400;6.770;2024-02-15T13:32:39;17.50;99.90
32614;DHT22;19031;51.400;6.770;2024-02-15T13:35:07;17.40;99.90
32614;DHT22;19031;51.400;6.770;2024-02-15T13:37:57;17.40;99.90
32614;DHT22;19031;51.400;6.770;2024-02-15T13:40:24;17.50;99.90
32614;DHT22;19031;51.400;6.770;2024-02-15T13:42:54;17.50;99.90
32614;DHT22;19031;51.400;6.770;2024-02-15T13:47:51;17.40;99.90
32614;DHT22;19031;51.400;6.770;2024-02-15T13:50:18;17.30;99.90
32614;DHT22;19031;51.400;6.770;2024-02-15T13:52:45;17.20;99.90
32614;DHT22;19031;51.400;6.770;2024-02-15T13:55:15;17.20;99.90
32614;DHT22;19031;51.400;6.770;2024-02-15T13:57:44;17.30;99.90
32614;DHT22;19031;51.400;6.770;2024-02-15T14:00:12;17.30;99.90
32614;DHT22;19031;51.400;6.770;2024-02-15T14:02:42;17.30;99.90
32614;DHT22;19031;51.400;6.770;2024-02-15T14:05:11;17.40;99.90
32614;DHT22;19031;51.400;6.770;2024-02-15T14:07:37;17.50;99.90
32614;DHT22;19031;51.400;6.770;2024-02-15T14:10:04;17.50;99.90
32614;DHT22;19031;51.400;6.770;2024-02-15T14:12:30;17.50;99.90
32614;DHT22;19031;51.400;6.770;2024-02-15T14:14:56;17.50;99.90
32614;DHT22;19031;51.400;6.770;2024-02-15T14:17:22;17.50;99.90
32614;DHT22;19031;51.400;6.770;2024-02-15T14:19:48;17.50;99.90
32614;DHT22;19031;51.400;6.770;2024-02-15T14:22:14;17.60;99.90
32614;DHT22;19031;51.400;6.770;2024-02-15T14:24:44;17.60;99.90
32614;DHT22;19031;51.400;6.770;2024-02-15T14:27:10;17.50;99.90
32614;DHT22;19031;51.400;6.770;2024-02-15T14:29:37;17.50;99.90
32614;DHT22;19031;51.400;6.770;2024-02-15T14:32:11;17.60;99.90
32614;DHT22;19031;51.400;6.770;2024-02-15T14:34:55;17.50;99.90
32614;DHT22;19031;51.400;6.770;2024-02-15T14:37:22;17.50;99.90
32614;DHT22;19031;51.400;6.770;2024-02-15T14:39:47;17.50;99.90
32614;DHT22;19031;51.400;6.770;2024-02-15T14:42:13;17.40;99.90
32614;DHT22;19031;51.400;6.770;2024-02-15T14:44:39;17.40;99.90
32614;DHT22;19031;51.400;6.770;2024-02-15T14:47:05;17.40;99.90
32614;DHT22;19031;51.400;6.770;2024-02-15T14:49:31;17.40;99.90
32614;DHT22;19031;51.400;6.770;2024-02-15T14:51:56;17.40;99.90
32614;DHT22;19031;51.400;6.770;2024-02-15T14:54:22;17.40;99.90
32614;DHT22;19031;51.400;6.770;2024-02-15T14:56:47;17.30;99.90
32614;DHT22;19031;51.400;6.770;2024-02-15T14:59:13;17.30;99.90
32614;DHT22;19031;51.400;6.770;2024-02-15T15:01:40;17.10;99.90
32614;DHT22;19031;51.400;6.770;2024-02-15T15:04:06;17.00;99.90
32614;DHT22;19031;51.400;6.770;2024-02-15T15:06:33;16.90;99.90
32614;DHT22;19031;51.400;6.770;2024-02-15T15:09:17;16.90;99.90
32614;DHT22;19031;51.400;6.770;2024-02-15T15:12:01;16.80;99.90
32614;DHT22;19031;51.400;6.770;2024-02-15T15:14:50;16.80;99.90
32614;DHT22;19031;51.400;6.770;2024-02-15T15:17:15;16.80;99.90
32614;DHT22;19031;51.400;6.770;2024-02-15T15:19:42;16.80;99.90
32614;DHT22;19031;51.400;6.770;2024-02-15T15:22:08;16.70;99.90
32614;DHT22;19031;51.400;6.770;2024-02-15T15:24:33;16.70;99.90
32614;DHT22;19031;51.400;6.770;2024-02-15T15:26:59;16.50;99.90
32614;DHT22;19031;51.400;6.770;2024-02-15T15:29:25;16.50;99.90
32614;DHT22;19031;51.400;6.770;2024-02-15T15:31:51;16.40;99.90
32614;DHT22;19031;51.400;6.770;2024-02-15T15:34:17;16.30;99.90
32614;DHT22;19031;51.400;6.770;2024-02-15T15:36:45;16.20;99.90
32614;DHT22;19031;51.400;6.770;2024-02-15T15:39:12;16.20;99.90
32614;DHT22;19031;51.400;6.770;2024-02-15T15:41:38;16.20;99.90
32614;DHT22;19031;51.400;6.770;2024-02-15T15:44:04;16.20;99.90
32614;DHT22;19031;51.400;6.770;2024-02-15T15:46:30;16.10;99.90
32614;DHT22;19031;51.400;6.770;2024-02-15T15:48:59;16.10;99.90